Huvudsida
METAR-TAF:

METAR-TAF

Flygplatser :

Ankara Esenboğa, Turkiet

latitud: 40-07N, longitud: 032-59E, höjd: 953 m

Aktuellt väderrapport

Denna rapport gjordes för 40 minuter sedan, klockan 16:20 UTC
Vind 9 kt från ost/nordost
Temperatur 10°C
Fuktighet 25%
Tryck 1008 hPa
Sikt 10 km eller mer
Inga moln under 1 500 m eller inga cumulonimbus

METAR: LTAC 251620Z 06009KT CAVOK 10/M09 Q1008 NOSIG RMK RWY21L 05009KT RWY03L 06009KT RWY21R 07009KT

Tid: 20:00 (17:00 UTC)

Väderprognos

Denna rapport gjordes för 6 timmar och 20 minuter sedan, klockan 10:40 UTC
Prognos gäller från 25 kl. 12 UTC till 26 kl. 12 UTC
Vind 2 kt varierande vindriktning
Sikt 10 km eller mer
Inga moln under 1 500 m eller inga cumulonimbus

TAF: LTAC 251040Z 2512/2612 VRB02KT CAVOK

Aktuella väderrapporter och prognoser från 4000 flygplatser (METAR- och TAF-rapporter).

De tillgängliga stationerna syns som gula och röda prickar på kartan.

För musen över prickarna för att se namnen på stationerna.

Klicka sedan för att få väderrapporter och prognoser.

För att ändra kartan: Klicka på de gröna knapparna med ett svart kors på för att zooma in; den gröna knappen med ett streck på för att zooma ut; eller på de gröna pilarna för angränsande kartor.


METAR-TAF: